createdAt,value
2023-05-10T00:00:48.875Z,0
2023-05-10T00:01:49.965Z,0
2023-05-10T00:02:51.202Z,0
2023-05-10T00:03:51.486Z,0
2023-05-10T00:04:51.459Z,0
2023-05-10T00:05:52.177Z,0
2023-05-10T00:06:52.723Z,0
2023-05-10T00:07:53.258Z,0
2023-05-10T00:08:54.395Z,0
2023-05-10T00:09:54.095Z,0
2023-05-10T00:10:55.246Z,0
2023-05-10T00:11:55.985Z,0
2023-05-10T00:12:56.849Z,0
2023-05-10T00:13:58.035Z,0
2023-05-10T00:14:57.891Z,0
2023-05-10T00:15:58.787Z,0
2023-05-10T00:16:59.901Z,0
2023-05-10T00:17:59.786Z,0
2023-05-10T00:19:00.335Z,0
2023-05-10T00:20:01.055Z,0
2023-05-10T00:21:01.577Z,0
2023-05-10T00:22:02.079Z,0
2023-05-10T00:23:03.213Z,0
2023-05-10T00:24:04.423Z,0
2023-05-10T00:25:04.820Z,0
2023-05-10T00:26:05.566Z,0
2023-05-10T00:27:06.529Z,0
2023-05-10T00:28:07.040Z,0
2023-05-10T00:29:07.994Z,0
2023-05-10T00:30:08.323Z,0
2023-05-10T00:31:09.182Z,0
2023-05-10T00:32:09.829Z,0
2023-05-10T00:33:10.770Z,0
2023-05-10T00:34:11.333Z,0
2023-05-10T00:35:12.597Z,0
2023-05-10T00:36:13.358Z,0
2023-05-10T00:37:14.261Z,0
2023-05-10T00:38:13.996Z,0
2023-05-10T00:39:14.311Z,0
2023-05-10T00:40:15.391Z,0
2023-05-10T00:41:14.983Z,0
2023-05-10T00:42:15.534Z,0
2023-05-10T00:43:16.089Z,0
2023-05-10T00:44:16.884Z,0
2023-05-10T00:45:17.516Z,0
2023-05-10T00:46:18.184Z,0
2023-05-10T00:47:19.041Z,0
2023-05-10T00:48:19.772Z,0
2023-05-10T00:49:20.309Z,0
2023-05-10T00:50:21.292Z,0
2023-05-10T00:51:21.420Z,0
2023-05-10T00:52:21.925Z,0
2023-05-10T00:53:22.648Z,0
2023-05-10T00:54:23.201Z,0
2023-05-10T00:55:23.567Z,0
2023-05-10T00:56:23.877Z,0
2023-05-10T00:57:24.610Z,0
2023-05-10T00:58:25.150Z,0
2023-05-10T00:59:25.910Z,0
2023-05-10T01:00:27.312Z,0
2023-05-10T01:01:26.902Z,0
2023-05-10T01:02:27.917Z,0
2023-05-10T01:03:28.012Z,0
2023-05-10T01:04:28.230Z,0
2023-05-10T01:05:28.908Z,0
2023-05-10T01:06:29.201Z,0
2023-05-10T01:07:30.511Z,0
2023-05-10T01:08:31.247Z,0
2023-05-10T01:09:31.860Z,0
2023-05-10T01:10:32.777Z,0
2023-05-10T01:11:33.053Z,0
2023-05-10T01:12:33.984Z,0
2023-05-10T01:13:34.834Z,0
2023-05-10T01:14:35.812Z,0
2023-05-10T01:16:36.246Z,0
2023-05-10T01:17:36.659Z,0
2023-05-10T01:18:37.167Z,0
2023-05-10T01:19:37.247Z,0
2023-05-10T01:20:38.148Z,0
2023-05-10T01:21:38.862Z,0
2023-05-10T01:22:39.570Z,0
2023-05-10T01:23:40.108Z,0
2023-05-10T01:24:40.616Z,0
2023-05-10T01:25:41.155Z,0
2023-05-10T01:26:41.910Z,0
2023-05-10T01:27:42.595Z,0
2023-05-10T01:28:43.284Z,0
2023-05-10T01:29:43.836Z,0
2023-05-10T01:30:44.456Z,0
2023-05-10T01:31:45.238Z,0
2023-05-10T01:32:45.840Z,0
2023-05-10T01:33:46.403Z,0
2023-05-10T01:34:47.493Z,0
2023-05-10T01:35:47.731Z,0
2023-05-10T01:36:48.436Z,0
2023-05-10T01:37:49.134Z,0
2023-05-10T01:38:49.642Z,0
2023-05-10T01:39:50.184Z,0
2023-05-10T01:40:51.079Z,0
2023-05-10T01:41:52.021Z,0
2023-05-10T01:42:52.844Z,0
2023-05-10T01:43:53.119Z,0
2023-05-10T01:44:54.053Z,0
2023-05-10T01:45:54.441Z,0
2023-05-10T01:46:55.430Z,0
2023-05-10T01:47:55.653Z,0
2023-05-10T01:48:56.249Z,0
2023-05-10T01:49:56.530Z,0
2023-05-10T01:50:57.307Z,0
2023-05-10T01:51:57.806Z,0
2023-05-10T01:52:58.358Z,0
2023-05-10T01:53:59.218Z,0
2023-05-10T01:54:59.745Z,0
2023-05-10T01:56:00.064Z,0
2023-05-10T01:57:00.615Z,0
2023-05-10T01:58:01.222Z,0
2023-05-10T01:59:01.915Z,0
2023-05-10T02:00:02.857Z,0
2023-05-10T02:01:02.682Z,0
2023-05-10T02:02:03.272Z,0
2023-05-10T02:03:03.991Z,0
2023-05-10T02:04:05.058Z,0
2023-05-10T02:05:04.947Z,0
2023-05-10T02:06:05.971Z,0
2023-05-10T02:07:06.679Z,0
2023-05-10T02:08:07.394Z,0
2023-05-10T02:09:08.522Z,0
2023-05-10T02:10:09.260Z,0
2023-05-10T02:11:09.459Z,0
2023-05-10T02:12:10.161Z,0
2023-05-10T02:13:11.176Z,0
2023-05-10T02:14:11.198Z,0
2023-05-10T02:15:12.255Z,0
2023-05-10T02:16:12.583Z,0
2023-05-10T02:17:13.149Z,0
2023-05-10T02:18:14.181Z,0
2023-05-10T02:19:14.948Z,0
2023-05-10T02:20:15.692Z,0
2023-05-10T02:21:16.351Z,0
2023-05-10T02:22:16.829Z,0
2023-05-10T02:23:17.324Z,0
2023-05-10T02:24:17.887Z,0
2023-05-10T02:25:18.664Z,0
2023-05-10T02:26:18.151Z,0
2023-05-10T02:27:19.076Z,0
2023-05-10T02:28:19.830Z,0
2023-05-10T02:29:20.383Z,0
2023-05-10T02:30:22.127Z,0
2023-05-10T02:31:21.867Z,0
2023-05-10T02:32:23.319Z,0
2023-05-10T02:33:23.146Z,0
2023-05-10T02:34:24.315Z,0
2023-05-10T02:35:24.011Z,0
2023-05-10T02:36:25.073Z,0
2023-05-10T02:37:25.777Z,0
2023-05-10T02:38:26.299Z,0
2023-05-10T02:39:27.112Z,0
2023-05-10T02:40:28.970Z,0
2023-05-10T02:41:28.988Z,0
2023-05-10T02:42:29.523Z,0
2023-05-10T02:43:30.063Z,0
2023-05-10T02:44:30.806Z,0
2023-05-10T02:45:31.574Z,0
2023-05-10T02:46:32.620Z,0
2023-05-10T02:47:33.155Z,0
2023-05-10T02:48:33.098Z,0
2023-05-10T02:49:33.626Z,0
2023-05-10T02:50:34.306Z,0
2023-05-10T02:51:34.798Z,0
2023-05-10T02:52:35.693Z,0
2023-05-10T02:53:35.423Z,0
2023-05-10T02:54:36.123Z,0
2023-05-10T02:55:36.686Z,0
2023-05-10T02:56:36.943Z,0
2023-05-10T02:57:37.432Z,0
2023-05-10T02:58:38.179Z,0
2023-05-10T02:59:39.078Z,0
2023-05-10T03:00:40.086Z,0
2023-05-10T03:01:41.094Z,0
2023-05-10T03:02:41.422Z,0
2023-05-10T03:03:42.030Z,0
2023-05-10T03:04:43.264Z,0
2023-05-10T03:05:43.277Z,0
2023-05-10T03:06:43.755Z,0
2023-05-10T03:07:44.448Z,0
2023-05-10T03:08:45.186Z,0
2023-05-10T03:09:46.148Z,0
2023-05-10T03:10:47.135Z,0
2023-05-10T03:11:47.662Z,0
2023-05-10T03:12:47.837Z,0
2023-05-10T03:13:48.616Z,0
2023-05-10T03:14:49.115Z,0
2023-05-10T03:15:49.834Z,0
2023-05-10T03:16:50.500Z,0
2023-05-10T03:17:50.385Z,0
2023-05-10T03:18:51.240Z,0
2023-05-10T03:19:51.739Z,0
2023-05-10T03:20:52.634Z,0
2023-05-10T03:21:53.326Z,0
2023-05-10T03:22:54.056Z,0
2023-05-10T03:23:54.641Z,0
2023-05-10T03:24:54.938Z,0
2023-05-10T03:25:55.475Z,0
2023-05-10T03:26:55.889Z,0
2023-05-10T03:27:56.574Z,0
2023-05-10T03:28:56.890Z,0
2023-05-10T03:29:57.820Z,0
2023-05-10T03:30:58.490Z,0
2023-05-10T03:31:59.391Z,0
2023-05-10T03:33:00.339Z,4
2023-05-10T03:34:01.336Z,4
2023-05-10T03:35:02.216Z,4
2023-05-10T03:36:02.532Z,0
2023-05-10T03:37:02.708Z,4
2023-05-10T03:38:03.398Z,4
2023-05-10T03:39:03.593Z,4
2023-05-10T03:40:04.160Z,0
2023-05-10T03:41:04.897Z,0
2023-05-10T03:42:05.623Z,4
2023-05-10T03:43:06.141Z,4
2023-05-10T03:44:07.104Z,4
2023-05-10T03:45:06.998Z,4
2023-05-10T03:46:07.938Z,4
2023-05-10T03:47:09.091Z,4
2023-05-10T03:48:08.992Z,4
2023-05-10T03:49:09.732Z,4
2023-05-10T03:50:10.076Z,4
2023-05-10T03:51:09.880Z,8
2023-05-10T03:52:10.395Z,4
2023-05-10T03:53:11.303Z,4
2023-05-10T03:54:12.049Z,8
2023-05-10T03:55:12.805Z,8
2023-05-10T03:56:13.763Z,8
2023-05-10T03:57:13.815Z,8
2023-05-10T03:58:14.258Z,8
2023-05-10T03:59:15.028Z,8
2023-05-10T04:00:16.152Z,8
2023-05-10T04:01:16.501Z,12
2023-05-10T04:02:17.565Z,12
2023-05-10T04:03:18.594Z,12
2023-05-10T04:04:18.746Z,16
2023-05-10T04:05:19.626Z,16
2023-05-10T04:06:21.029Z,16
2023-05-10T04:07:21.182Z,20
2023-05-10T04:08:21.897Z,20
2023-05-10T04:09:22.267Z,16
2023-05-10T04:10:23.921Z,20
2023-05-10T04:11:23.268Z,20
2023-05-10T04:12:24.016Z,24
2023-05-10T04:13:25.187Z,24
2023-05-10T04:14:25.994Z,24
2023-05-10T04:15:26.485Z,24
2023-05-10T04:16:27.364Z,24
2023-05-10T04:17:28.305Z,28
2023-05-10T04:18:28.838Z,28
2023-05-10T04:19:29.598Z,24
2023-05-10T04:20:30.542Z,24
2023-05-10T04:21:30.842Z,28
2023-05-10T04:22:31.440Z,24
2023-05-10T04:23:32.175Z,24
2023-05-10T04:24:32.695Z,24
2023-05-10T04:25:33.428Z,24
2023-05-10T04:26:33.763Z,24
2023-05-10T04:27:34.411Z,28
2023-05-10T04:28:35.150Z,28
2023-05-10T04:29:35.711Z,28
2023-05-10T04:30:36.641Z,28
2023-05-10T04:31:37.289Z,28
2023-05-10T04:32:38.199Z,32
2023-05-10T04:33:39.207Z,32
2023-05-10T04:34:39.104Z,32
2023-05-10T04:35:39.660Z,36
2023-05-10T04:36:40.174Z,40
2023-05-10T04:37:40.535Z,36
2023-05-10T04:38:41.275Z,40
2023-05-10T04:39:42.374Z,36
2023-05-10T04:40:43.274Z,40
2023-05-10T04:41:44.058Z,52
2023-05-10T04:42:44.361Z,56
2023-05-10T04:43:44.810Z,64
2023-05-10T04:44:45.775Z,76
2023-05-10T04:45:46.060Z,80
2023-05-10T04:46:47.553Z,80
2023-05-10T04:48:47.927Z,72
2023-05-10T04:49:48.021Z,64
2023-05-10T04:50:48.706Z,60
2023-05-10T04:51:49.603Z,60
2023-05-10T04:52:49.303Z,60
2023-05-10T04:54:11.528Z,72
2023-05-10T04:55:50.620Z,72
2023-05-10T04:56:51.385Z,72
2023-05-10T04:57:51.796Z,72
2023-05-10T04:58:52.103Z,76
2023-05-10T04:59:55.624Z,76
2023-05-10T05:00:53.353Z,80
2023-05-10T05:01:53.641Z,84
2023-05-10T05:02:54.232Z,88
2023-05-10T05:03:54.667Z,80
2023-05-10T05:04:54.424Z,84
2023-05-10T05:05:55.124Z,88
2023-05-10T05:06:59.455Z,92
2023-05-10T05:07:55.823Z,96
2023-05-10T05:08:56.780Z,92
2023-05-10T05:09:57.478Z,96
2023-05-10T05:10:57.801Z,108
2023-05-10T05:11:58.558Z,108
2023-05-10T05:12:59.406Z,100
2023-05-10T05:14:00.378Z,112
2023-05-10T05:15:01.056Z,120
2023-05-10T05:16:01.582Z,128
2023-05-10T05:17:01.597Z,140
2023-05-10T05:19:02.287Z,148
2023-05-10T05:20:03.106Z,152
2023-05-10T05:21:04.043Z,156
2023-05-10T05:22:04.962Z,164
2023-05-10T05:23:05.905Z,172
2023-05-10T05:24:06.543Z,184
2023-05-10T05:25:06.824Z,196
2023-05-10T05:26:07.599Z,204
2023-05-10T05:27:08.138Z,216
2023-05-10T05:28:08.805Z,224
2023-05-10T05:29:09.528Z,220
2023-05-10T05:30:09.879Z,216
2023-05-10T05:31:11.063Z,212
2023-05-10T05:32:12.418Z,204
2023-05-10T05:33:12.742Z,200
2023-05-10T05:34:13.094Z,196
2023-05-10T05:35:13.627Z,188
2023-05-10T05:36:14.489Z,180
2023-05-10T05:37:14.977Z,184
2023-05-10T05:38:15.440Z,188
2023-05-10T05:39:15.532Z,180
2023-05-10T05:40:16.471Z,168
2023-05-10T05:41:17.443Z,160
2023-05-10T05:42:18.382Z,160
2023-05-10T05:43:19.084Z,172
2023-05-10T05:44:19.581Z,184
2023-05-10T05:45:21.153Z,192
2023-05-10T05:46:21.091Z,192
2023-05-10T05:47:20.949Z,196
2023-05-10T05:48:21.687Z,212
2023-05-10T05:49:22.688Z,232
2023-05-10T05:50:22.473Z,248
2023-05-10T05:51:23.246Z,260
2023-05-10T05:52:24.354Z,264
2023-05-10T05:53:24.861Z,260
2023-05-10T05:54:25.579Z,248
2023-05-10T05:55:26.680Z,240
2023-05-10T05:56:26.717Z,240
2023-05-10T05:57:27.015Z,248
2023-05-10T05:58:27.863Z,264
2023-05-10T05:59:28.386Z,284
2023-05-10T06:00:29.209Z,312
2023-05-10T06:01:29.910Z,328
2023-05-10T06:02:31.069Z,344
2023-05-10T06:03:31.398Z,364
2023-05-10T06:04:32.036Z,384
2023-05-10T06:05:32.074Z,388
2023-05-10T06:06:32.185Z,396
2023-05-10T06:07:32.920Z,388
2023-05-10T06:08:33.371Z,364
2023-05-10T06:09:33.860Z,340
2023-05-10T06:10:34.240Z,340
2023-05-10T06:11:34.872Z,336
2023-05-10T06:12:35.221Z,328
2023-05-10T06:13:36.064Z,328
2023-05-10T06:14:36.699Z,348
2023-05-10T06:15:37.456Z,372
2023-05-10T06:16:38.298Z,400
2023-05-10T06:17:39.544Z,408
2023-05-10T06:18:39.641Z,428
2023-05-10T06:19:39.554Z,448
2023-05-10T06:20:40.271Z,444
2023-05-10T06:21:40.840Z,444
2023-05-10T06:22:41.581Z,492
2023-05-10T06:23:42.077Z,500
2023-05-10T06:24:43.011Z,512
2023-05-10T06:25:43.516Z,528
2023-05-10T06:26:44.443Z,516
2023-05-10T06:27:48.112Z,496
2023-05-10T06:28:45.652Z,472
2023-05-10T06:29:46.165Z,448
2023-05-10T06:30:46.842Z,440
2023-05-10T06:31:47.753Z,452
2023-05-10T06:32:48.968Z,468
2023-05-10T06:33:49.218Z,476
2023-05-10T06:34:49.198Z,496
2023-05-10T06:35:49.933Z,508
2023-05-10T06:36:50.877Z,512
2023-05-10T06:37:52.048Z,508
2023-05-10T06:38:52.367Z,504
2023-05-10T06:39:53.108Z,504
2023-05-10T06:40:53.801Z,500
2023-05-10T06:41:54.341Z,492
2023-05-10T06:42:55.462Z,492
2023-05-10T06:43:55.365Z,496
2023-05-10T06:44:55.873Z,500
2023-05-10T06:45:56.853Z,504
2023-05-10T06:46:57.776Z,516
2023-05-10T06:47:58.608Z,520
2023-05-10T06:48:59.389Z,532
2023-05-10T06:49:59.727Z,540
2023-05-10T06:51:00.457Z,540
2023-05-10T06:52:01.162Z,536
2023-05-10T06:53:03.739Z,548
2023-05-10T06:54:02.441Z,560
2023-05-10T06:55:03.596Z,568
2023-05-10T06:56:04.434Z,588
2023-05-10T06:57:07.261Z,640
2023-05-10T06:58:04.931Z,696
2023-05-10T06:59:05.990Z,732
2023-05-10T07:00:06.945Z,752
2023-05-10T07:01:06.950Z,784
2023-05-10T07:02:08.194Z,800
2023-05-10T07:03:08.682Z,816
2023-05-10T07:04:08.722Z,840
2023-05-10T07:05:12.438Z,860
2023-05-10T07:06:13.390Z,852
2023-05-10T07:07:10.073Z,824
2023-05-10T07:08:10.980Z,744
2023-05-10T07:09:11.398Z,668
2023-05-10T07:10:11.946Z,620
2023-05-10T07:11:12.710Z,592
2023-05-10T07:12:19.343Z,576
2023-05-10T07:13:14.858Z,572
2023-05-10T07:14:15.068Z,576
2023-05-10T07:15:16.239Z,576
2023-05-10T07:16:16.531Z,572
2023-05-10T07:17:16.411Z,552
2023-05-10T07:18:17.673Z,544
2023-05-10T07:19:18.290Z,536
2023-05-10T07:20:18.848Z,528
2023-05-10T07:21:20.142Z,520
2023-05-10T07:22:20.061Z,484
2023-05-10T07:23:20.804Z,436
2023-05-10T07:24:21.363Z,476
2023-05-10T07:25:22.406Z,508
2023-05-10T07:26:23.004Z,496
2023-05-10T07:27:24.219Z,436
2023-05-10T07:28:24.268Z,436
2023-05-10T07:29:25.413Z,504
2023-05-10T07:30:25.742Z,588
2023-05-10T07:31:25.750Z,624
2023-05-10T07:32:25.833Z,600
2023-05-10T07:33:26.909Z,540
2023-05-10T07:34:27.666Z,508
2023-05-10T07:35:28.687Z,500
2023-05-10T07:36:29.381Z,528
2023-05-10T07:37:30.497Z,576
2023-05-10T07:38:30.896Z,596
2023-05-10T07:39:37.975Z,628
2023-05-10T07:40:32.897Z,632
2023-05-10T07:41:35.592Z,664
2023-05-10T07:42:34.812Z,684
2023-05-10T07:43:35.516Z,672
2023-05-10T07:44:36.760Z,672
2023-05-10T07:45:36.520Z,700
2023-05-10T07:46:37.832Z,776
2023-05-10T07:47:37.852Z,828
2023-05-10T07:48:38.908Z,820
2023-05-10T07:49:38.565Z,748
2023-05-10T07:50:39.063Z,620
2023-05-10T07:51:40.083Z,548
2023-05-10T07:52:41.035Z,512
2023-05-10T07:53:41.010Z,476
2023-05-10T07:54:42.229Z,472
2023-05-10T07:55:42.422Z,500
2023-05-10T07:56:43.342Z,528
2023-05-10T07:57:43.293Z,564
2023-05-10T07:58:44.471Z,608
2023-05-10T07:59:45.182Z,656
2023-05-10T08:00:45.367Z,676
2023-05-10T08:01:45.352Z,692
2023-05-10T08:02:46.846Z,732
2023-05-10T08:03:47.820Z,796
2023-05-10T08:04:48.664Z,840
2023-05-10T08:05:48.434Z,868
2023-05-10T08:06:49.481Z,888
2023-05-10T08:07:50.224Z,908
2023-05-10T08:08:51.469Z,900
2023-05-10T08:09:51.549Z,868
2023-05-10T08:10:52.588Z,820
2023-05-10T08:11:53.614Z,784
2023-05-10T08:12:53.845Z,752
2023-05-10T08:13:54.315Z,728
2023-05-10T08:14:55.061Z,716
2023-05-10T08:15:56.437Z,696
2023-05-10T08:16:56.657Z,688
2023-05-10T08:17:57.607Z,692
2023-05-10T08:18:58.069Z,680
2023-05-10T08:19:57.717Z,656
2023-05-10T08:20:58.851Z,632
2023-05-10T08:21:59.591Z,644
2023-05-10T08:23:02.838Z,688
2023-05-10T08:24:00.616Z,684
2023-05-10T08:25:01.586Z,680
2023-05-10T08:26:01.637Z,748
2023-05-10T08:27:02.795Z,840
2023-05-10T08:28:03.836Z,924
2023-05-10T08:29:04.592Z,1004
2023-05-10T08:30:04.743Z,1096
2023-05-10T08:31:06.158Z,1180
2023-05-10T08:32:06.377Z,1212
2023-05-10T08:33:07.660Z,1240
2023-05-10T08:34:07.943Z,1204
2023-05-10T08:35:07.686Z,1148
2023-05-10T08:36:08.751Z,1092
2023-05-10T08:37:09.256Z,1012
2023-05-10T08:38:10.308Z,916
2023-05-10T08:39:30.204Z,848
2023-05-10T08:41:18.888Z,716
2023-05-10T08:42:19.928Z,640
2023-05-10T08:43:20.790Z,540
2023-05-10T08:44:21.760Z,512
2023-05-10T08:45:23.057Z,520
2023-05-10T08:46:22.967Z,536
2023-05-10T08:47:23.792Z,564
2023-05-10T08:48:24.800Z,604
2023-05-10T08:49:25.058Z,648
2023-05-10T08:50:25.132Z,628
2023-05-10T08:51:25.288Z,568
2023-05-10T08:52:26.049Z,500
2023-05-10T08:53:26.639Z,428
2023-05-10T08:54:27.555Z,508
2023-05-10T08:55:28.710Z,636
2023-05-10T08:56:28.854Z,720
2023-05-10T08:57:29.028Z,788
2023-05-10T08:58:29.978Z,864
2023-05-10T08:59:30.022Z,784
2023-05-10T09:00:31.042Z,748
2023-05-10T09:01:31.906Z,784
2023-05-10T09:02:32.337Z,924
2023-05-10T09:03:32.226Z,996
2023-05-10T09:04:34.108Z,932
2023-05-10T09:05:34.077Z,868
2023-05-10T09:06:34.665Z,740
2023-05-10T09:07:36.390Z,696
2023-05-10T09:08:36.474Z,744
2023-05-10T09:09:37.685Z,776
2023-05-10T09:10:37.620Z,828
2023-05-10T09:11:38.195Z,876
2023-05-10T09:12:39.389Z,904
2023-05-10T09:13:39.650Z,912
2023-05-10T09:14:39.488Z,924
2023-05-10T09:15:40.441Z,944
2023-05-10T09:16:40.384Z,1008
2023-05-10T09:17:41.601Z,1088
2023-05-10T09:18:41.922Z,1148
2023-05-10T09:19:42.193Z,1252
2023-05-10T09:20:42.701Z,1264
2023-05-10T09:21:43.379Z,1348
2023-05-10T09:22:44.070Z,1416
2023-05-10T09:23:46.122Z,1500
2023-05-10T09:24:45.412Z,1572
2023-05-10T09:25:46.573Z,1444
2023-05-10T09:26:46.799Z,1300
2023-05-10T09:27:47.804Z,1184
2023-05-10T09:28:47.835Z,1112
2023-05-10T09:29:48.810Z,1060
2023-05-10T09:30:49.199Z,1056
2023-05-10T09:31:49.235Z,1036
2023-05-10T09:32:50.611Z,996
2023-05-10T09:33:50.516Z,872
2023-05-10T09:34:51.772Z,704
2023-05-10T09:35:52.354Z,640
2023-05-10T09:36:53.121Z,564
2023-05-10T09:37:54.272Z,484
2023-05-10T09:38:55.360Z,436
2023-05-10T09:39:55.318Z,400
2023-05-10T09:40:55.796Z,364
2023-05-10T09:41:56.770Z,356
2023-05-10T09:42:57.971Z,416
2023-05-10T09:43:58.014Z,504
2023-05-10T09:44:58.864Z,596
2023-05-10T09:46:00.169Z,700
2023-05-10T09:46:59.969Z,780
2023-05-10T09:48:01.191Z,796
2023-05-10T09:49:02.064Z,808
2023-05-10T09:50:03.100Z,812
2023-05-10T09:51:02.600Z,808
2023-05-10T09:52:03.395Z,808
2023-05-10T09:53:04.154Z,808
2023-05-10T09:54:04.898Z,772
2023-05-10T09:55:06.012Z,784
2023-05-10T09:56:06.957Z,740
2023-05-10T09:57:07.911Z,712
2023-05-10T09:58:07.947Z,692
2023-05-10T09:59:08.489Z,708
2023-05-10T10:00:09.498Z,728
2023-05-10T10:01:10.527Z,768
2023-05-10T10:02:11.065Z,816
2023-05-10T10:03:11.708Z,848
2023-05-10T10:04:11.887Z,908
2023-05-10T10:05:13.321Z,980
2023-05-10T10:06:35.729Z,1036
2023-05-10T10:08:14.532Z,1004
2023-05-10T10:09:15.550Z,944
2023-05-10T10:10:16.445Z,908
2023-05-10T10:11:17.321Z,920
2023-05-10T10:12:18.266Z,920
2023-05-10T10:13:19.210Z,896
2023-05-10T10:14:20.414Z,896
2023-05-10T10:15:22.975Z,876
2023-05-10T10:16:22.170Z,876
2023-05-10T10:17:22.467Z,848
2023-05-10T10:18:22.880Z,764
2023-05-10T10:19:23.363Z,700
2023-05-10T10:20:24.213Z,676
2023-05-10T10:22:24.783Z,704
2023-05-10T10:23:26.833Z,764
2023-05-10T10:24:25.414Z,828
2023-05-10T10:25:26.649Z,880
2023-05-10T10:26:27.451Z,908
2023-05-10T10:27:28.269Z,912
2023-05-10T10:28:32.215Z,912
2023-05-10T10:29:30.154Z,900
2023-05-10T10:30:31.115Z,892
2023-05-10T10:31:32.168Z,892
2023-05-10T10:32:32.571Z,892
2023-05-10T10:33:40.006Z,892
2023-05-10T10:35:34.491Z,884
2023-05-10T10:36:34.282Z,876
2023-05-10T10:37:34.891Z,872
2023-05-10T10:38:35.466Z,876
2023-05-10T10:39:36.366Z,880
2023-05-10T10:40:40.452Z,872
2023-05-10T10:41:38.135Z,860
2023-05-10T10:42:38.149Z,868
2023-05-10T10:43:39.134Z,884
2023-05-10T10:44:40.271Z,904
2023-05-10T10:45:42.039Z,916
2023-05-10T10:46:41.423Z,932
2023-05-10T10:47:42.702Z,940
2023-05-10T10:48:42.539Z,944
2023-05-10T10:49:43.500Z,956
2023-05-10T10:50:44.370Z,972
2023-05-10T10:51:44.547Z,988
2023-05-10T10:52:45.556Z,1012
2023-05-10T10:53:45.728Z,1056
2023-05-10T10:54:46.577Z,1096
2023-05-10T10:55:47.294Z,1148
2023-05-10T10:56:48.252Z,1200
2023-05-10T10:57:48.285Z,1200
2023-05-10T10:58:49.012Z,1144
2023-05-10T10:59:49.960Z,1036
2023-05-10T11:00:49.955Z,928
2023-05-10T11:01:50.699Z,872
2023-05-10T11:02:51.350Z,868
2023-05-10T11:03:52.352Z,884
2023-05-10T11:04:53.571Z,888
2023-05-10T11:05:53.723Z,892
2023-05-10T11:06:53.507Z,896
2023-05-10T11:07:54.350Z,912
2023-05-10T11:08:55.172Z,904
2023-05-10T11:09:56.307Z,884
2023-05-10T11:10:56.066Z,848
2023-05-10T11:11:56.680Z,804
2023-05-10T11:12:57.393Z,756
2023-05-10T11:14:01.688Z,716
2023-05-10T11:14:58.487Z,752
2023-05-10T11:15:59.245Z,856
2023-05-10T11:17:00.284Z,904
2023-05-10T11:18:01.372Z,840
2023-05-10T11:19:02.587Z,824
2023-05-10T11:20:02.468Z,884
2023-05-10T11:21:03.417Z,964
2023-05-10T11:22:03.831Z,1004
2023-05-10T11:23:04.549Z,996
2023-05-10T11:24:05.641Z,940
2023-05-10T11:25:06.579Z,888
2023-05-10T11:26:07.493Z,848
2023-05-10T11:27:08.639Z,824
2023-05-10T11:28:08.354Z,800
2023-05-10T11:29:08.855Z,764
2023-05-10T11:30:10.510Z,752
2023-05-10T11:31:10.183Z,812
2023-05-10T11:32:10.311Z,856
2023-05-10T11:33:10.777Z,900
2023-05-10T11:34:12.013Z,920
2023-05-10T11:35:11.824Z,912
2023-05-10T11:36:12.647Z,876
2023-05-10T11:37:13.362Z,852
2023-05-10T11:38:13.892Z,816
2023-05-10T11:39:14.222Z,768
2023-05-10T11:40:14.862Z,740
2023-05-10T11:41:15.030Z,724
2023-05-10T11:42:15.699Z,732
2023-05-10T11:43:16.844Z,760
2023-05-10T11:44:17.401Z,728
2023-05-10T11:45:18.173Z,668
2023-05-10T11:46:19.322Z,652
2023-05-10T11:47:19.508Z,620
2023-05-10T11:48:19.663Z,668
2023-05-10T11:49:19.644Z,816
2023-05-10T11:50:21.150Z,984
2023-05-10T11:51:21.427Z,1096
2023-05-10T11:52:21.499Z,1104
2023-05-10T11:53:22.483Z,1044
2023-05-10T11:54:23.488Z,984
2023-05-10T11:55:23.807Z,896
2023-05-10T11:56:24.869Z,808
2023-05-10T11:57:25.020Z,832
2023-05-10T11:58:24.748Z,868
2023-05-10T11:59:25.701Z,940
2023-05-10T12:00:26.938Z,984
2023-05-10T12:01:27.093Z,1032
2023-05-10T12:02:27.688Z,1064
2023-05-10T12:03:28.447Z,1080
2023-05-10T12:04:28.846Z,1064
2023-05-10T12:05:29.123Z,1024
2023-05-10T12:06:29.350Z,940
2023-05-10T12:07:29.413Z,844
2023-05-10T12:08:29.218Z,780
2023-05-10T12:09:50.006Z,800
2023-05-10T12:11:31.209Z,904
2023-05-10T12:12:31.686Z,880
2023-05-10T12:13:32.668Z,844
2023-05-10T12:14:32.390Z,768
2023-05-10T12:15:33.161Z,680
2023-05-10T12:16:34.047Z,616
2023-05-10T12:17:33.959Z,576
2023-05-10T12:18:34.855Z,608
2023-05-10T12:19:34.887Z,568
2023-05-10T12:20:34.927Z,520
2023-05-10T12:21:36.132Z,444
2023-05-10T12:22:36.998Z,444
2023-05-10T12:23:37.704Z,368
2023-05-10T12:24:38.244Z,352
2023-05-10T12:25:38.808Z,484
2023-05-10T12:26:40.062Z,592
2023-05-10T12:27:40.629Z,644
2023-05-10T12:28:41.557Z,624
2023-05-10T12:29:42.767Z,584
2023-05-10T12:30:43.008Z,564
2023-05-10T12:31:44.672Z,592
2023-05-10T12:32:44.572Z,588
2023-05-10T12:33:45.931Z,576
2023-05-10T12:34:45.947Z,560
2023-05-10T12:35:48.667Z,528
2023-05-10T12:36:47.630Z,504
2023-05-10T12:37:48.543Z,472
2023-05-10T12:38:49.257Z,464
2023-05-10T12:39:50.424Z,492
2023-05-10T12:40:50.369Z,496
2023-05-10T12:41:52.493Z,508
2023-05-10T12:42:51.235Z,516
2023-05-10T12:43:51.229Z,516
2023-05-10T12:44:51.876Z,516
2023-05-10T12:45:53.227Z,508
2023-05-10T12:46:53.370Z,504
2023-05-10T12:47:55.086Z,520
2023-05-10T12:49:08.791Z,548
2023-05-10T12:49:55.553Z,564
2023-05-10T12:50:56.501Z,588
2023-05-10T12:51:56.666Z,612
2023-05-10T12:52:57.431Z,624
2023-05-10T12:54:00.331Z,632
2023-05-10T12:54:58.055Z,640
2023-05-10T12:55:59.035Z,652
2023-05-10T12:56:59.968Z,660
2023-05-10T12:58:00.715Z,676
2023-05-10T12:59:01.646Z,696
2023-05-10T13:00:02.219Z,716
2023-05-10T13:01:03.624Z,744
2023-05-10T13:02:03.385Z,768
2023-05-10T13:03:04.337Z,804
2023-05-10T13:04:04.376Z,840
2023-05-10T13:05:05.696Z,860
2023-05-10T13:06:05.527Z,880
2023-05-10T13:07:06.505Z,892
2023-05-10T13:08:06.626Z,896
2023-05-10T13:09:07.301Z,900
2023-05-10T13:10:07.882Z,892
2023-05-10T13:11:08.631Z,864
2023-05-10T13:12:10.094Z,844
2023-05-10T13:13:09.937Z,824
2023-05-10T13:14:10.676Z,816
2023-05-10T13:15:11.595Z,804
2023-05-10T13:16:12.547Z,784
2023-05-10T13:17:14.077Z,776
2023-05-10T13:18:14.578Z,800
2023-05-10T13:19:15.081Z,808
2023-05-10T13:20:14.858Z,768
2023-05-10T13:21:15.664Z,780
2023-05-10T13:22:20.640Z,808
2023-05-10T13:24:23.264Z,844
2023-05-10T13:25:24.398Z,864
2023-05-10T13:26:25.323Z,872
2023-05-10T13:27:25.678Z,856
2023-05-10T13:28:27.378Z,820
2023-05-10T13:29:27.345Z,820
2023-05-10T13:30:27.498Z,804
2023-05-10T13:31:28.508Z,776
2023-05-10T13:32:29.066Z,788
2023-05-10T13:34:29.448Z,784
2023-05-10T13:35:30.028Z,792
2023-05-10T13:36:31.032Z,800
2023-05-10T13:37:32.032Z,784
2023-05-10T13:38:34.028Z,752
2023-05-10T13:39:34.023Z,760
2023-05-10T13:40:34.215Z,804
2023-05-10T13:41:34.990Z,916
2023-05-10T13:42:35.657Z,1004
2023-05-10T13:43:36.326Z,1036
2023-05-10T13:44:36.956Z,1052
2023-05-10T13:45:37.971Z,1040
2023-05-10T13:46:37.999Z,1000
2023-05-10T13:47:38.406Z,964
2023-05-10T13:48:39.066Z,948
2023-05-10T13:49:39.390Z,972
2023-05-10T13:50:40.273Z,980
2023-05-10T13:51:41.525Z,972
2023-05-10T13:52:41.479Z,960
2023-05-10T13:53:42.316Z,980
2023-05-10T13:54:43.244Z,1020
2023-05-10T13:55:44.170Z,1040
2023-05-10T13:56:45.288Z,1064
2023-05-10T13:57:45.255Z,952
2023-05-10T13:58:45.768Z,812
2023-05-10T13:59:46.704Z,516
2023-05-10T14:00:47.408Z,308
2023-05-10T14:01:48.128Z,268
2023-05-10T14:02:49.360Z,360
2023-05-10T14:03:50.594Z,464
2023-05-10T14:04:51.321Z,564
2023-05-10T14:05:52.515Z,664
2023-05-10T14:06:53.033Z,724
2023-05-10T14:07:53.999Z,732
2023-05-10T14:08:54.830Z,700
2023-05-10T14:09:55.826Z,668
2023-05-10T14:10:56.782Z,644
2023-05-10T14:11:56.910Z,636
2023-05-10T14:12:57.438Z,628
2023-05-10T14:13:58.255Z,616
2023-05-10T14:14:57.979Z,608
2023-05-10T14:15:58.808Z,604
2023-05-10T14:16:59.950Z,580
2023-05-10T14:18:00.924Z,584
2023-05-10T14:19:01.331Z,564
2023-05-10T14:20:01.171Z,572
2023-05-10T14:21:02.200Z,556
2023-05-10T14:22:02.917Z,544
2023-05-10T14:23:03.887Z,528